createdAt,value
2022-08-22T00:02:59.810Z,101160.50
2022-08-22T05:02:11.249Z,101261.97
2022-08-22T05:07:24.863Z,101267.91
2022-08-22T05:13:07.612Z,101274.78
2022-08-22T05:18:35.239Z,101273.97
2022-08-22T05:23:43.102Z,101270.91
2022-08-22T05:28:53.497Z,101278.84
2022-08-22T05:34:00.970Z,101288.75
2022-08-22T05:39:11.465Z,101288.63
2022-08-22T05:44:24.395Z,101288.13
2022-08-22T05:49:36.366Z,101298.06
2022-08-22T05:54:51.276Z,101295.19
2022-08-22T06:00:03.312Z,101303.50
2022-08-22T06:05:30.984Z,101298.69
2022-08-22T06:10:53.769Z,101300.53
2022-08-22T06:16:16.911Z,101308.59
2022-08-22T06:21:32.558Z,101309.38
2022-08-22T06:26:48.586Z,101309.19
2022-08-22T06:31:51.830Z,101310.19
2022-08-22T06:36:57.544Z,101305.22
2022-08-22T06:42:02.977Z,101311.25
2022-08-22T06:47:15.620Z,101308.75
2022-08-22T06:52:23.420Z,101316.16
2022-08-22T06:57:28.606Z,101315.75
2022-08-22T07:02:39.418Z,101323.13
2022-08-22T07:07:42.489Z,101313.63
2022-08-22T07:12:49.374Z,101326.66
2022-08-22T07:17:59.682Z,101323.56
2022-08-22T07:23:10.377Z,101330.75
2022-08-22T07:28:37.019Z,101342.88
2022-08-22T07:33:54.217Z,101333.75
2022-08-22T07:39:23.835Z,101335.25
2022-08-22T07:44:35.353Z,101340.41
2022-08-22T07:49:59.032Z,101333.47
2022-08-22T07:55:08.786Z,101333.38
2022-08-22T08:00:19.734Z,101342.50
2022-08-22T08:05:30.565Z,101338.69
2022-08-22T08:10:36.946Z,101346.38
2022-08-22T08:15:41.025Z,101340.25
2022-08-22T08:20:43.484Z,101348.53
2022-08-22T08:26:04.174Z,101341.09
2022-08-22T08:31:35.458Z,101348.31
2022-08-22T08:36:53.219Z,101342.41
2022-08-22T08:42:16.739Z,101339.00
2022-08-22T08:48:09.060Z,101338.69
2022-08-22T08:54:12.689Z,101337.34
2022-08-22T08:59:33.441Z,101331.97
2022-08-22T09:04:41.077Z,101328.09
2022-08-22T09:09:58.186Z,101333.16
2022-08-22T09:15:20.402Z,101331.44
2022-08-22T09:20:55.964Z,101333.78
2022-08-22T09:26:07.451Z,101333.25
2022-08-22T09:31:32.863Z,101331.78
2022-08-22T09:36:59.304Z,101338.03
2022-08-22T09:42:18.390Z,101351.53
2022-08-22T09:47:32.779Z,101341.41
2022-08-22T09:52:47.167Z,101338.31
2022-08-22T09:58:02.985Z,101347.25
2022-08-22T10:03:18.566Z,101339.41
2022-08-22T10:08:33.439Z,101341.25
2022-08-22T10:14:01.451Z,101341.22
2022-08-22T10:19:18.157Z,101343.78
2022-08-22T10:24:51.203Z,101346.50
2022-08-22T10:30:05.906Z,101348.19
2022-08-22T10:35:25.571Z,101345.28
2022-08-22T10:40:40.140Z,101347.69
2022-08-22T10:45:46.960Z,101342.31
2022-08-22T10:50:55.303Z,101342.28
2022-08-22T10:56:03.902Z,101338.00
2022-08-22T11:01:40.959Z,101342.63
2022-08-22T11:06:46.593Z,101342.97
2022-08-22T11:12:07.896Z,101337.81
2022-08-22T11:17:40.603Z,101341.31
2022-08-22T11:22:59.741Z,101338.50
2022-08-22T11:28:39.664Z,101338.69
2022-08-22T11:34:01.087Z,101335.06
2022-08-22T11:39:34.557Z,101338.88
2022-08-22T11:44:53.889Z,101332.56
2022-08-22T11:49:56.775Z,101336.22
2022-08-22T11:55:23.635Z,101335.00
2022-08-22T12:00:35.097Z,101329.75
2022-08-22T12:05:47.209Z,101337.56
2022-08-22T12:11:02.385Z,101326.22
2022-08-22T12:16:24.669Z,101324.50
2022-08-22T12:21:54.804Z,101325.34
2022-08-22T12:27:09.037Z,101314.69
2022-08-22T12:32:44.049Z,101312.38
2022-08-22T12:37:56.836Z,101312.44
2022-08-22T12:43:14.449Z,101306.28
2022-08-22T12:48:55.219Z,101297.44
2022-08-22T12:54:22.007Z,101289.38
2022-08-22T12:59:27.664Z,101290.22
2022-08-22T13:04:34.312Z,101286.00
2022-08-22T13:09:46.998Z,101290.47
2022-08-22T13:14:56.854Z,101291.31
2022-08-22T13:20:08.429Z,101283.44
2022-08-22T13:25:26.470Z,101282.56
2022-08-22T13:30:37.437Z,101274.72
2022-08-22T13:35:52.010Z,101279.06
2022-08-22T13:40:57.928Z,101277.28
2022-08-22T13:46:03.702Z,101281.66
2022-08-22T13:51:21.241Z,101281.53
2022-08-22T13:56:30.514Z,101284.09
2022-08-22T14:01:53.052Z,101272.78
2022-08-22T14:07:19.939Z,101274.56
2022-08-22T14:12:50.307Z,101263.16
2022-08-22T14:18:01.047Z,101262.31
2022-08-22T14:23:26.916Z,101264.91
2022-08-22T14:28:35.759Z,101262.22
2022-08-22T14:33:48.675Z,101260.44
2022-08-22T14:38:53.251Z,101265.69
2022-08-22T14:44:01.659Z,101256.94
2022-08-22T14:49:20.262Z,101255.19
2022-08-22T14:54:30.563Z,101258.53
2022-08-22T14:59:50.575Z,101262.78
2022-08-22T15:04:55.429Z,101269.72
2022-08-22T15:10:23.512Z,101269.63
2022-08-22T15:15:54.386Z,101260.84
2022-08-22T15:21:06.870Z,101263.47
2022-08-22T15:26:20.763Z,101268.69
2022-08-22T15:31:23.734Z,101263.38
2022-08-22T15:36:27.206Z,101265.91
2022-08-22T15:41:36.607Z,101255.16
2022-08-22T15:46:44.571Z,101255.00
2022-08-22T15:52:05.656Z,101255.06
2022-08-22T15:57:10.529Z,101253.25
2022-08-22T16:02:31.567Z,101252.25
2022-08-22T16:07:49.216Z,101259.13
2022-08-22T16:13:12.756Z,101266.00
2022-08-22T16:18:33.270Z,101258.06
2022-08-22T16:23:53.922Z,101258.84
2022-08-22T16:28:59.431Z,101270.06
2022-08-22T16:34:16.801Z,101275.97
2022-08-22T16:39:22.127Z,101276.47
2022-08-22T16:44:30.419Z,101273.44
2022-08-22T16:49:39.434Z,101286.06
2022-08-22T16:54:47.115Z,101284.84
2022-08-22T17:00:19.976Z,101295.81
2022-08-22T17:05:47.273Z,101294.41
2022-08-22T17:11:23.905Z,101299.19
2022-08-22T17:16:32.528Z,101297.22
2022-08-22T17:21:48.699Z,101305.72
2022-08-22T17:26:55.336Z,101301.16
2022-08-22T17:32:19.550Z,101304.22
2022-08-22T17:37:25.988Z,101298.69
2022-08-22T17:42:47.112Z,101302.72
2022-08-22T17:47:58.449Z,101304.13
2022-08-22T17:53:28.037Z,101306.63
2022-08-22T17:58:43.904Z,101316.88
2022-08-22T18:03:58.169Z,101319.22
2022-08-22T18:09:20.865Z,101330.28
2022-08-22T18:14:32.347Z,101321.31
2022-08-22T18:19:55.980Z,101322.03
2022-08-22T18:25:13.414Z,101327.91
2022-08-22T18:30:20.955Z,101336.44
2022-08-22T18:35:43.509Z,101338.81
2022-08-22T18:41:13.954Z,101340.25
2022-08-22T18:46:38.171Z,101351.28
2022-08-22T18:51:41.648Z,101346.09
2022-08-22T18:56:54.698Z,101357.19
2022-08-22T19:01:56.987Z,101361.22
2022-08-22T19:07:29.593Z,101363.63
2022-08-22T19:13:11.648Z,101363.63
2022-08-22T19:18:28.657Z,101366.09
2022-08-22T19:23:37.430Z,101372.84
2022-08-22T19:28:39.744Z,101372.56
2022-08-22T19:33:48.562Z,101366.88
2022-08-22T19:39:01.717Z,101363.25
2022-08-22T19:44:04.091Z,101368.94
2022-08-22T19:49:31.955Z,101362.59
2022-08-22T19:55:00.482Z,101355.81
2022-08-22T20:00:08.498Z,101362.88
2022-08-22T20:05:27.553Z,101360.09
2022-08-22T20:11:11.284Z,101360.53
2022-08-22T20:16:23.776Z,101360.53
2022-08-22T20:21:47.885Z,101347.25
2022-08-22T20:27:12.756Z,101348.94
2022-08-22T20:32:19.757Z,101358.47
2022-08-22T20:37:45.330Z,101366.94
2022-08-22T20:42:54.837Z,101367.69
2022-08-22T20:47:57.579Z,101369.25
2022-08-22T20:53:12.254Z,101366.47
2022-08-22T20:58:27.907Z,101369.53
2022-08-22T21:03:41.618Z,101367.66
2022-08-22T21:08:45.535Z,101375.31
2022-08-22T21:13:50.416Z,101367.38
2022-08-22T21:18:54.542Z,101368.47
2022-08-22T21:24:00.781Z,101365.00
2022-08-22T21:29:12.570Z,101371.72
2022-08-22T21:34:19.237Z,101362.97
2022-08-22T21:39:25.420Z,101371.41
2022-08-22T21:44:40.043Z,101359.63
2022-08-22T21:50:13.156Z,101369.75
2022-08-22T21:55:28.899Z,101371.13
